createdAt,value
2022-12-08T00:02:24.951Z,11.45
2022-12-08T00:05:09.818Z,11.50
2022-12-08T00:07:57.258Z,10.20
2022-12-08T00:10:48.439Z,12.40
2022-12-08T00:13:10.957Z,9.10
2022-12-08T00:15:37.350Z,9.30
2022-12-08T00:18:03.679Z,8.80
2022-12-08T00:20:30.106Z,7.53
2022-12-08T00:22:56.628Z,12.13
2022-12-08T00:25:23.078Z,11.02
2022-12-08T00:27:49.437Z,10.77
2022-12-08T00:30:15.875Z,9.77
2022-12-08T00:32:42.510Z,13.50
2022-12-08T00:35:09.051Z,11.77
2022-12-08T00:37:35.394Z,14.07
2022-12-08T00:40:02.386Z,12.23
2022-12-08T00:42:29.119Z,11.52
2022-12-08T00:44:55.642Z,13.65
2022-12-08T00:47:24.826Z,11.82
2022-12-08T00:49:51.958Z,12.18
2022-12-08T00:52:18.311Z,11.23
2022-12-08T00:54:44.735Z,12.60
2022-12-08T00:57:11.528Z,9.13
2022-12-08T00:59:38.029Z,9.38
2022-12-08T01:02:04.447Z,10.85
2022-12-08T01:04:30.806Z,10.27
2022-12-08T01:06:57.188Z,12.35
2022-12-08T01:09:23.532Z,11.40
2022-12-08T01:11:49.927Z,10.73
2022-12-08T01:14:16.353Z,9.68
2022-12-08T01:16:42.820Z,8.40
2022-12-08T01:19:10.359Z,10.60
2022-12-08T01:21:36.732Z,9.15
2022-12-08T01:24:03.244Z,10.25
2022-12-08T01:26:29.744Z,11.07
2022-12-08T01:28:56.054Z,10.38
2022-12-08T01:31:23.030Z,8.05
2022-12-08T01:33:50.009Z,9.73
2022-12-08T01:36:23.868Z,9.32
2022-12-08T01:38:50.617Z,11.73
2022-12-08T01:41:18.601Z,7.40
2022-12-08T01:43:55.187Z,7.57
2022-12-08T01:46:21.713Z,7.65
2022-12-08T01:48:48.720Z,10.10
2022-12-08T01:51:15.451Z,9.93
2022-12-08T01:53:41.884Z,8.65
2022-12-08T01:56:11.017Z,11.13
2022-12-08T01:58:42.800Z,7.50
2022-12-08T02:01:12.686Z,8.57
2022-12-08T02:03:44.177Z,7.07
2022-12-08T02:06:11.191Z,8.93
2022-12-08T02:08:38.961Z,8.93
2022-12-08T02:11:05.749Z,8.88
2022-12-08T02:13:32.784Z,11.48
2022-12-08T02:16:10.509Z,8.65
2022-12-08T02:18:39.690Z,10.27
2022-12-08T02:21:12.743Z,11.88
2022-12-08T02:23:51.700Z,12.63
2022-12-08T02:26:33.399Z,13.90
2022-12-08T02:29:11.974Z,14.30
2022-12-08T02:31:57.080Z,14.98
2022-12-08T02:34:42.161Z,14.90
2022-12-08T02:37:18.209Z,18.35
2022-12-08T02:39:47.566Z,17.52
2022-12-08T02:42:27.946Z,12.52
2022-12-08T02:45:03.287Z,17.30
2022-12-08T02:47:30.513Z,14.60
2022-12-08T02:49:57.502Z,17.83
2022-12-08T02:52:23.883Z,17.38
2022-12-08T02:54:51.890Z,13.75
2022-12-08T02:57:28.099Z,13.48
2022-12-08T03:00:04.591Z,14.30
2022-12-08T03:02:31.503Z,11.32
2022-12-08T03:05:08.476Z,10.65
2022-12-08T03:07:47.546Z,12.27
2022-12-08T03:10:25.268Z,9.40
2022-12-08T03:12:58.937Z,10.68
2022-12-08T03:15:25.593Z,9.80
2022-12-08T03:17:54.790Z,9.27
2022-12-08T03:20:23.453Z,8.40
2022-12-08T03:22:50.665Z,7.60
2022-12-08T03:25:19.181Z,8.20
2022-12-08T03:27:45.576Z,7.15
2022-12-08T03:30:12.122Z,8.20
2022-12-08T03:32:50.495Z,7.63
2022-12-08T03:35:20.107Z,9.73
2022-12-08T03:37:46.559Z,7.32
2022-12-08T03:40:30.654Z,7.13
2022-12-08T03:43:02.387Z,6.28
2022-12-08T03:45:28.942Z,6.82
2022-12-08T03:47:55.554Z,6.95
2022-12-08T03:50:22.101Z,9.30
2022-12-08T03:52:48.899Z,7.40
2022-12-08T03:55:15.468Z,7.43
2022-12-08T03:57:41.892Z,4.38
2022-12-08T04:00:09.898Z,4.10
2022-12-08T04:02:36.438Z,3.85
2022-12-08T04:05:03.155Z,6.38
2022-12-08T04:07:29.682Z,4.07
2022-12-08T04:09:56.091Z,3.22
2022-12-08T04:12:23.576Z,3.35
2022-12-08T04:14:49.978Z,4.93
2022-12-08T04:17:16.394Z,5.97
2022-12-08T04:19:42.773Z,3.75
2022-12-08T04:22:09.184Z,2.55
2022-12-08T04:24:35.503Z,6.97
2022-12-08T04:27:01.857Z,3.63
2022-12-08T04:29:28.201Z,4.75
2022-12-08T04:31:54.557Z,3.85
2022-12-08T04:34:20.939Z,4.68
2022-12-08T04:36:47.284Z,5.65
2022-12-08T04:39:13.660Z,5.18
2022-12-08T04:41:39.941Z,4.03
2022-12-08T04:44:06.324Z,6.22
2022-12-08T04:46:32.958Z,9.95
2022-12-08T04:48:59.418Z,8.27
2022-12-08T04:51:27.238Z,10.10
2022-12-08T04:53:53.584Z,8.52
2022-12-08T04:56:20.001Z,8.52
2022-12-08T04:58:46.954Z,9.65
2022-12-08T05:01:14.034Z,8.05
2022-12-08T05:03:40.487Z,7.22
2022-12-08T05:06:07.249Z,6.18
2022-12-08T05:08:33.859Z,5.00
2022-12-08T05:11:04.597Z,7.10
2022-12-08T05:13:30.993Z,6.07
2022-12-08T05:16:04.369Z,8.95
2022-12-08T05:18:30.765Z,10.43
2022-12-08T05:20:57.060Z,5.35
2022-12-08T05:23:23.349Z,5.65
2022-12-08T05:25:49.657Z,4.82
2022-12-08T05:28:40.391Z,4.20
2022-12-08T05:31:02.671Z,6.65
2022-12-08T05:33:29.090Z,5.93
2022-12-08T05:35:55.389Z,6.25
2022-12-08T05:38:21.698Z,3.85
2022-12-08T05:40:48.113Z,3.47
2022-12-08T05:43:14.938Z,5.28
2022-12-08T05:45:41.381Z,4.72
2022-12-08T05:48:08.108Z,4.60
2022-12-08T05:50:34.830Z,6.30
2022-12-08T05:53:01.131Z,7.03
2022-12-08T05:55:27.478Z,4.43
2022-12-08T05:57:54.027Z,3.28
2022-12-08T06:00:20.758Z,4.85
2022-12-08T06:02:47.508Z,3.60
2022-12-08T06:05:14.221Z,4.72
2022-12-08T06:07:40.614Z,5.72
2022-12-08T06:10:07.570Z,5.75
2022-12-08T06:12:34.137Z,6.03
2022-12-08T06:15:00.686Z,4.90
2022-12-08T06:17:27.032Z,6.40
2022-12-08T06:19:53.615Z,6.72
2022-12-08T06:22:20.002Z,4.20
2022-12-08T06:24:46.337Z,4.45
2022-12-08T06:27:12.702Z,4.13
2022-12-08T06:29:39.081Z,5.85
2022-12-08T06:32:05.657Z,4.38
2022-12-08T06:34:32.076Z,5.10
2022-12-08T06:36:58.352Z,7.43
2022-12-08T06:39:27.766Z,5.47
2022-12-08T06:42:13.025Z,4.75
2022-12-08T06:44:39.457Z,6.05
2022-12-08T06:47:05.793Z,8.02
2022-12-08T06:49:32.067Z,4.38
2022-12-08T06:51:58.336Z,4.05
2022-12-08T06:54:24.649Z,4.95
2022-12-08T06:56:51.064Z,5.00
2022-12-08T06:59:20.548Z,10.45
2022-12-08T07:01:47.125Z,5.43
2022-12-08T07:04:13.604Z,5.72
2022-12-08T07:06:40.037Z,5.43
2022-12-08T07:09:06.443Z,4.55
2022-12-08T07:11:32.875Z,5.82
2022-12-08T07:13:59.204Z,5.05
2022-12-08T07:16:25.558Z,9.63
2022-12-08T07:18:51.887Z,7.70
2022-12-08T07:21:18.494Z,8.02
2022-12-08T07:23:54.343Z,6.20
2022-12-08T07:26:23.672Z,6.38
2022-12-08T07:28:50.136Z,6.53
2022-12-08T07:31:20.682Z,4.95
2022-12-08T07:33:47.448Z,5.68
2022-12-08T07:36:13.911Z,5.57
2022-12-08T07:38:40.360Z,6.50
2022-12-08T07:41:11.128Z,8.82
2022-12-08T07:43:37.724Z,8.40
2022-12-08T07:46:04.139Z,9.25
2022-12-08T07:48:30.575Z,10.13
2022-12-08T07:51:01.216Z,8.65
2022-12-08T07:53:28.061Z,6.53
2022-12-08T07:55:54.463Z,6.63
2022-12-08T07:58:20.781Z,7.32
2022-12-08T08:00:50.376Z,6.25
2022-12-08T08:03:16.880Z,15.68
2022-12-08T08:05:44.220Z,10.15
2022-12-08T08:08:11.362Z,12.57
2022-12-08T08:10:37.785Z,5.85
2022-12-08T08:13:04.119Z,7.32
2022-12-08T08:15:33.576Z,5.05
2022-12-08T08:18:00.126Z,5.00
2022-12-08T08:20:26.838Z,6.25
2022-12-08T08:22:53.216Z,5.65
2022-12-08T08:25:22.886Z,3.22
2022-12-08T08:27:49.509Z,4.53
2022-12-08T08:30:20.422Z,4.57
2022-12-08T08:32:47.658Z,3.47
2022-12-08T08:35:14.143Z,5.63
2022-12-08T08:37:43.143Z,4.85
2022-12-08T08:40:13.529Z,4.72
2022-12-08T08:42:39.955Z,5.85
2022-12-08T08:45:06.552Z,9.45
2022-12-08T08:47:32.870Z,10.90
2022-12-08T08:49:59.266Z,4.45
2022-12-08T08:52:25.820Z,7.63
2022-12-08T08:54:52.174Z,3.70
2022-12-08T08:57:25.105Z,3.72
2022-12-08T08:59:51.959Z,3.38
2022-12-08T09:02:19.248Z,2.67
2022-12-08T09:04:46.097Z,3.03
2022-12-08T09:07:13.346Z,3.25
2022-12-08T09:09:39.788Z,3.35
2022-12-08T09:12:06.492Z,3.25
2022-12-08T09:14:32.784Z,2.20
2022-12-08T09:16:59.249Z,4.72
2022-12-08T09:19:25.710Z,3.42
2022-12-08T09:21:55.158Z,3.20
2022-12-08T09:24:21.500Z,2.83
2022-12-08T09:26:48.279Z,3.05
2022-12-08T09:29:14.811Z,2.53
2022-12-08T09:31:41.273Z,3.47
2022-12-08T09:34:07.679Z,3.22
2022-12-08T09:36:34.150Z,3.28
2022-12-08T09:39:03.387Z,3.22
2022-12-08T09:41:40.429Z,3.42
2022-12-08T09:44:28.655Z,2.97
2022-12-08T09:46:55.896Z,3.65
2022-12-08T09:49:25.881Z,3.65
2022-12-08T09:51:52.517Z,4.50
2022-12-08T09:54:24.356Z,4.57
2022-12-08T09:56:53.816Z,3.08
2022-12-08T09:59:25.987Z,3.83
2022-12-08T10:01:52.815Z,2.60
2022-12-08T10:04:36.430Z,6.78
2022-12-08T10:07:15.741Z,4.15
2022-12-08T10:09:42.075Z,4.82
2022-12-08T10:12:17.553Z,4.57
2022-12-08T10:14:46.160Z,3.35
2022-12-08T10:17:15.997Z,4.28
2022-12-08T10:19:46.982Z,4.60
2022-12-08T10:24:43.929Z,5.60
2022-12-08T10:27:11.632Z,5.45
2022-12-08T10:29:38.262Z,5.72
2022-12-08T10:32:13.868Z,3.28
2022-12-08T10:34:58.764Z,4.00
2022-12-08T10:37:25.153Z,4.10
2022-12-08T10:39:58.736Z,3.53
2022-12-08T10:42:25.375Z,5.05
2022-12-08T10:45:00.351Z,3.67
2022-12-08T10:47:35.184Z,3.63
2022-12-08T10:50:21.701Z,3.63
2022-12-08T10:52:55.985Z,3.60
2022-12-08T10:55:23.040Z,4.50
2022-12-08T10:57:49.683Z,2.92
2022-12-08T11:00:18.091Z,3.63
2022-12-08T11:02:55.286Z,3.70
2022-12-08T11:05:22.490Z,3.42
2022-12-08T11:07:51.437Z,4.78
2022-12-08T11:10:18.984Z,5.15
2022-12-08T11:12:45.545Z,2.40
2022-12-08T11:15:16.067Z,3.38
2022-12-08T11:17:44.340Z,4.03
2022-12-08T11:20:10.730Z,3.30
2022-12-08T11:22:41.141Z,3.63
2022-12-08T11:25:07.459Z,6.63
2022-12-08T11:27:44.642Z,7.05
2022-12-08T11:30:24.251Z,6.88
2022-12-08T11:33:00.022Z,4.88
2022-12-08T11:35:29.571Z,3.80
2022-12-08T11:38:08.129Z,4.80
2022-12-08T11:40:44.559Z,4.07
2022-12-08T11:43:29.459Z,4.68
2022-12-08T11:46:00.268Z,5.10
2022-12-08T11:50:55.511Z,4.93
2022-12-08T11:53:31.624Z,3.53
2022-12-08T11:56:00.456Z,3.08
2022-12-08T11:58:31.913Z,3.88
2022-12-08T12:00:58.621Z,2.33
2022-12-08T12:03:31.301Z,2.85
2022-12-08T12:06:38.313Z,2.05
2022-12-08T12:08:59.353Z,2.83
2022-12-08T12:12:10.911Z,3.22
2022-12-08T12:14:37.637Z,3.33
2022-12-08T12:17:05.187Z,1.63
2022-12-08T12:19:37.344Z,1.30
2022-12-08T12:22:14.216Z,3.03
2022-12-08T12:24:43.071Z,3.55
2022-12-08T12:27:15.684Z,2.33
2022-12-08T12:29:50.948Z,2.90
2022-12-08T12:32:22.057Z,3.67
2022-12-08T12:34:58.984Z,3.63
2022-12-08T12:37:43.479Z,4.68
2022-12-08T12:40:15.995Z,4.43
2022-12-08T12:42:43.664Z,3.30
2022-12-08T12:45:22.167Z,3.60
2022-12-08T12:48:00.630Z,3.28
2022-12-08T12:50:33.246Z,4.00
2022-12-08T12:53:02.670Z,3.97
2022-12-08T12:55:49.185Z,3.75
2022-12-08T12:58:27.638Z,4.03
2022-12-08T13:01:16.970Z,4.35
2022-12-08T13:03:45.740Z,4.47
2022-12-08T13:06:14.762Z,7.05
2022-12-08T13:08:49.693Z,3.65
2022-12-08T13:11:16.456Z,3.33
2022-12-08T13:14:06.345Z,4.80
2022-12-08T13:16:37.615Z,3.45
2022-12-08T13:19:04.716Z,2.83
2022-12-08T13:21:35.761Z,4.57
2022-12-08T13:24:12.930Z,3.10
2022-12-08T13:26:49.560Z,2.92
2022-12-08T13:29:21.638Z,3.00
2022-12-08T13:31:50.931Z,4.18
2022-12-08T13:34:25.290Z,3.63
2022-12-08T13:36:57.528Z,4.25
2022-12-08T13:39:29.593Z,4.65
2022-12-08T13:42:02.063Z,5.15
2022-12-08T13:45:19.022Z,7.22
2022-12-08T13:47:34.860Z,4.35
2022-12-08T13:58:46.977Z,5.55
2022-12-08T14:01:19.349Z,5.30
2022-12-08T14:04:30.951Z,6.57
2022-12-08T14:06:52.734Z,6.00
2022-12-08T14:09:20.972Z,6.75
2022-12-08T14:11:52.817Z,7.45
2022-12-08T14:15:00.664Z,6.57
2022-12-08T14:17:18.451Z,7.45
2022-12-08T14:19:52.217Z,6.25
2022-12-08T14:22:18.597Z,5.57
2022-12-08T14:24:46.147Z,6.30
2022-12-08T14:27:14.949Z,9.80
2022-12-08T14:29:44.407Z,5.50
2022-12-08T14:32:21.610Z,5.90
2022-12-08T14:34:58.770Z,5.88
2022-12-08T14:37:25.809Z,7.78
2022-12-08T14:39:52.490Z,6.13
2022-12-08T14:42:24.154Z,6.32
2022-12-08T14:44:59.434Z,6.07
2022-12-08T14:47:29.115Z,5.97
2022-12-08T14:49:55.460Z,6.63
2022-12-08T14:52:21.862Z,8.00
2022-12-08T14:54:49.959Z,6.47
2022-12-08T14:57:16.389Z,6.65
2022-12-08T14:59:43.358Z,8.40
2022-12-08T15:02:15.712Z,7.15
2022-12-08T15:04:44.310Z,8.38
2022-12-08T15:07:13.445Z,8.38
2022-12-08T15:09:48.651Z,7.88
2022-12-08T15:12:15.008Z,12.73
2022-12-08T15:15:01.516Z,28.05
2022-12-08T15:17:27.804Z,14.13
2022-12-08T15:19:57.820Z,11.90
2022-12-08T15:22:24.464Z,12.97
2022-12-08T15:24:50.967Z,11.55
2022-12-08T15:27:20.933Z,12.05
2022-12-08T15:29:48.060Z,11.53
2022-12-08T15:32:17.356Z,10.63
2022-12-08T15:34:43.660Z,9.45
2022-12-08T15:37:19.495Z,8.70
2022-12-08T15:39:45.764Z,11.10
2022-12-08T15:42:12.909Z,11.25
2022-12-08T15:44:39.451Z,8.85
2022-12-08T15:47:06.504Z,12.85
2022-12-08T15:49:32.906Z,12.23
2022-12-08T15:52:10.621Z,9.98
2022-12-08T15:54:37.880Z,9.90
2022-12-08T15:57:19.273Z,9.88
2022-12-08T15:59:48.762Z,10.43
2022-12-08T16:02:20.879Z,10.18
2022-12-08T16:07:38.037Z,10.27
2022-12-08T16:10:05.630Z,9.88
2022-12-08T16:16:00.345Z,9.15
2022-12-08T16:18:26.790Z,9.85
2022-12-08T16:23:44.236Z,10.05
2022-12-08T16:26:24.425Z,11.35
2022-12-08T16:28:55.386Z,7.95
2022-12-08T16:31:23.371Z,10.35
2022-12-08T16:33:49.948Z,8.55
2022-12-08T16:36:16.486Z,8.95
2022-12-08T16:38:42.852Z,11.07
2022-12-08T16:41:34.246Z,11.45
2022-12-08T16:44:04.599Z,9.52
2022-12-08T16:46:31.044Z,8.95
2022-12-08T16:48:58.881Z,11.25
2022-12-08T16:51:27.361Z,10.20
2022-12-08T16:53:54.126Z,10.05
2022-12-08T16:56:21.698Z,9.98
2022-12-08T16:58:48.090Z,13.25
2022-12-08T17:01:15.464Z,13.35
2022-12-08T17:03:51.622Z,10.90
2022-12-08T17:06:27.651Z,11.35
2022-12-08T17:08:54.125Z,13.23
2022-12-08T17:11:24.095Z,11.93
2022-12-08T17:13:50.575Z,11.90
2022-12-08T17:16:19.070Z,11.75
2022-12-08T17:18:45.775Z,11.02
2022-12-08T17:21:12.986Z,13.35
2022-12-08T17:23:40.059Z,12.88
2022-12-08T17:26:06.554Z,15.65
2022-12-08T17:28:58.833Z,15.70
2022-12-08T17:31:21.382Z,15.93
2022-12-08T17:33:50.048Z,18.90
2022-12-08T17:36:17.025Z,19.52
2022-12-08T17:38:43.648Z,18.83
2022-12-08T17:41:10.642Z,20.05
2022-12-08T17:43:37.309Z,17.55
2022-12-08T17:46:04.086Z,20.85
2022-12-08T17:48:30.508Z,16.73
2022-12-08T17:50:56.824Z,17.40
2022-12-08T17:53:23.557Z,17.65
2022-12-08T17:55:54.299Z,20.70
2022-12-08T17:58:20.960Z,16.25
2022-12-08T18:00:47.688Z,15.35
2022-12-08T18:03:14.174Z,14.82
2022-12-08T18:05:40.535Z,18.25
2022-12-08T18:08:06.889Z,17.77
2022-12-08T18:10:33.226Z,15.52
2022-12-08T18:12:59.630Z,16.92
2022-12-08T18:15:26.008Z,20.20
2022-12-08T18:17:52.366Z,16.85
2022-12-08T18:20:18.653Z,17.50
2022-12-08T18:22:45.320Z,17.60
2022-12-08T18:25:12.331Z,17.77
2022-12-08T18:27:42.998Z,16.38
2022-12-08T18:30:13.456Z,18.52
2022-12-08T18:32:39.944Z,17.17
2022-12-08T18:35:06.877Z,16.80
2022-12-08T18:37:34.256Z,17.33
2022-12-08T18:40:00.619Z,19.60
2022-12-08T18:42:28.245Z,15.45
2022-12-08T18:44:58.678Z,16.50
2022-12-08T18:47:25.034Z,15.70
2022-12-08T18:49:54.700Z,16.30
2022-12-08T18:52:28.278Z,16.73
2022-12-08T18:55:06.477Z,19.63
2022-12-08T18:57:33.567Z,31.33
2022-12-08T18:59:59.924Z,36.70
2022-12-08T19:02:26.292Z,26.13
2022-12-08T19:04:54.909Z,29.92
2022-12-08T19:07:21.259Z,24.27
2022-12-08T19:09:47.701Z,21.55
2022-12-08T19:12:14.132Z,20.90
2022-12-08T19:14:40.939Z,20.63
2022-12-08T19:17:07.537Z,19.77
2022-12-08T19:19:34.543Z,24.88
2022-12-08T19:22:00.995Z,23.33
2022-12-08T19:24:27.319Z,21.13
2022-12-08T19:26:53.781Z,22.25
2022-12-08T19:29:20.137Z,24.40
2022-12-08T19:31:46.593Z,21.13
2022-12-08T19:34:13.616Z,25.33
2022-12-08T19:36:42.932Z,25.63
2022-12-08T19:39:38.350Z,26.60
2022-12-08T19:42:24.528Z,25.33
2022-12-08T19:44:53.657Z,24.83
2022-12-08T19:47:20.985Z,23.77
2022-12-08T19:49:47.706Z,26.80
2022-12-08T19:52:14.071Z,23.88
2022-12-08T19:54:40.402Z,28.00
2022-12-08T19:57:06.685Z,26.83
2022-12-08T19:59:32.995Z,24.90
2022-12-08T20:01:59.510Z,25.73
2022-12-08T20:04:26.830Z,30.02
2022-12-08T20:06:53.795Z,27.92
2022-12-08T20:09:20.694Z,26.25
2022-12-08T20:11:47.054Z,29.83
2022-12-08T20:14:19.595Z,30.75
2022-12-08T20:16:46.061Z,29.50
2022-12-08T20:19:12.624Z,28.25
2022-12-08T20:21:39.563Z,30.05
2022-12-08T20:24:06.149Z,28.35
2022-12-08T20:26:32.504Z,28.88
2022-12-08T20:28:58.846Z,32.30
2022-12-08T20:31:26.711Z,33.38
2022-12-08T20:33:53.671Z,32.90
2022-12-08T20:36:20.648Z,30.77
2022-12-08T20:38:47.990Z,32.90
2022-12-08T20:41:17.797Z,37.08
2022-12-08T20:43:44.680Z,33.22
2022-12-08T20:46:12.436Z,32.33
2022-12-08T20:48:38.922Z,28.92
2022-12-08T20:51:05.450Z,32.22
2022-12-08T20:53:34.519Z,35.58
2022-12-08T20:56:00.844Z,33.58
2022-12-08T20:58:27.272Z,34.08
2022-12-08T21:00:53.810Z,34.25
2022-12-08T21:03:20.433Z,39.53
2022-12-08T21:06:04.158Z,38.08
2022-12-08T21:08:30.726Z,34.35
2022-12-08T21:10:57.335Z,33.78
2022-12-08T21:13:23.879Z,42.83
2022-12-08T21:15:50.530Z,37.67
2022-12-08T21:18:17.119Z,32.65
2022-12-08T21:20:44.107Z,35.97
2022-12-08T21:23:11.389Z,35.42
2022-12-08T21:25:41.678Z,34.67
2022-12-08T21:28:08.104Z,32.20
2022-12-08T21:30:34.567Z,38.38
2022-12-08T21:33:01.208Z,36.67
2022-12-08T21:35:27.667Z,36.80
2022-12-08T21:37:54.331Z,36.60
2022-12-08T21:40:20.813Z,38.03
2022-12-08T21:42:47.370Z,42.88
2022-12-08T21:45:15.481Z,39.17
2022-12-08T21:47:42.374Z,33.28
2022-12-08T21:50:09.734Z,37.95
2022-12-08T21:52:37.599Z,35.95
2022-12-08T21:55:04.261Z,35.70
2022-12-08T21:57:30.702Z,35.47
2022-12-08T21:59:57.401Z,34.00
2022-12-08T22:02:24.033Z,34.22
2022-12-08T22:04:50.980Z,34.50
2022-12-08T22:07:17.513Z,37.90
2022-12-08T22:09:44.151Z,32.83
2022-12-08T22:12:13.868Z,35.83
2022-12-08T22:14:40.433Z,33.08
2022-12-08T22:17:07.179Z,38.78
2022-12-08T22:19:36.559Z,39.70
2022-12-08T22:22:03.147Z,35.75
2022-12-08T22:24:32.470Z,39.85
2022-12-08T22:26:59.232Z,39.70
2022-12-08T22:29:25.706Z,35.28
2022-12-08T22:31:52.277Z,36.97
2022-12-08T22:34:18.717Z,40.40
2022-12-08T22:36:45.265Z,36.53
2022-12-08T22:39:12.224Z,38.30
2022-12-08T22:41:38.807Z,35.78
2022-12-08T22:44:06.143Z,39.40
2022-12-08T22:46:32.607Z,36.40
2022-12-08T22:48:59.207Z,38.35
2022-12-08T22:51:25.818Z,40.40
2022-12-08T22:53:52.232Z,41.30
2022-12-08T22:56:19.678Z,43.63
2022-12-08T22:58:48.381Z,36.88
2022-12-08T23:01:25.492Z,41.42
2022-12-08T23:03:52.084Z,42.70
2022-12-08T23:06:18.728Z,39.00
2022-12-08T23:08:45.845Z,42.97
2022-12-08T23:11:12.890Z,39.45
2022-12-08T23:13:39.848Z,38.00
2022-12-08T23:16:07.460Z,37.58
2022-12-08T23:18:33.934Z,36.60
2022-12-08T23:21:04.689Z,36.78
2022-12-08T23:23:31.111Z,31.88
2022-12-08T23:25:57.403Z,37.63
2022-12-08T23:28:23.838Z,35.42
2022-12-08T23:30:52.597Z,33.65
2022-12-08T23:33:19.011Z,36.65
2022-12-08T23:35:45.425Z,39.67
2022-12-08T23:38:11.768Z,40.72
2022-12-08T23:40:38.075Z,39.45
2022-12-08T23:43:05.465Z,40.97
2022-12-08T23:45:31.935Z,39.90
2022-12-08T23:47:58.413Z,46.03
2022-12-08T23:50:24.906Z,43.25
2022-12-08T23:52:51.439Z,45.83
2022-12-08T23:55:17.714Z,43.25
2022-12-08T23:57:46.824Z,40.72
